Time;durP1;ratioP1;P1;durP2;ratioP2;P2;SDS_P1;SDS_P2;PMS_P1;PMS_P2;Temp;Humidity;BMP_temperature;BMP_pressure;BME280_temperature;BME280_humidity;BME280_pressure;Samples;Min_cycle;Max_cycle;Signal;HPM_P1;HPM_P2
2024/02/08 00:01:13;;;;;;;19.27;6.97;;;0.10;99.90;;;3.84;100.00;99598.00;5025849;28;20517;-78
2024/02/08 00:03:39;;;;;;;21.50;7.63;;;0.20;99.90;;;3.89;100.00;99595.53;5033982;28;20445;-78
2024/02/08 00:06:05;;;;;;;24.58;7.68;;;0.10;99.90;;;4.12;100.00;99602.53;5029638;28;20037;-78
2024/02/08 00:08:30;;;;;;;17.55;6.53;;;0.10;99.90;;;4.20;100.00;99603.38;5023099;28;20041;-78
2024/02/08 00:10:56;;;;;;;19.13;6.63;;;0.10;99.90;;;4.14;100.00;99605.84;5002571;28;20040;-78
2024/02/08 00:13:23;;;;;;;21.17;7.22;;;0.10;99.90;;;4.21;100.00;99588.84;5025002;28;20087;-78
2024/02/08 00:15:48;;;;;;;18.40;6.22;;;0.10;99.90;;;4.24;100.00;99599.22;5013427;28;20040;-78
2024/02/08 00:18:15;;;;;;;24.30;8.10;;;0.10;99.90;;;3.97;100.00;99594.56;5019421;28;20042;-79
2024/02/08 00:20:41;;;;;;;18.08;6.63;;;0.00;99.90;;;4.17;100.00;99600.03;5037147;28;20026;-78
2024/02/08 00:23:09;;;;;;;18.80;6.70;;;0.10;99.90;;;4.23;100.00;99593.03;5017987;28;20508;-77
2024/02/08 00:25:35;;;;;;;21.13;7.07;;;0.10;99.90;;;4.21;100.00;99578.88;5029381;28;20033;-78
2024/02/08 00:28:01;;;;;;;16.75;6.65;;;0.00;99.90;;;4.27;100.00;99582.66;5015258;28;20030;-77
2024/02/08 00:30:26;;;;;;;19.50;6.63;;;0.00;99.90;;;4.29;100.00;99576.00;5015807;28;20079;-78
2024/02/08 00:32:52;;;;;;;20.30;6.43;;;0.00;99.90;;;3.97;100.00;99582.91;5020972;28;20045;-77
2024/02/08 00:35:19;;;;;;;23.10;7.78;;;0.00;99.90;;;4.10;100.00;99580.28;5001808;28;20038;-77
2024/02/08 00:37:49;;;;;;;19.80;7.45;;;0.00;99.90;;;4.07;100.00;99585.25;5013645;28;20042;-77
2024/02/08 00:40:16;;;;;;;19.33;6.78;;;0.00;99.90;;;4.26;100.00;99586.41;5004570;28;20037;-78
2024/02/08 00:42:43;;;;;;;19.50;6.88;;;-0.10;99.90;;;4.27;100.00;99574.56;5016817;28;20069;-77
2024/02/08 00:45:10;;;;;;;16.88;6.63;;;-0.10;99.90;;;4.25;100.00;99576.63;5017921;28;20034;-77
2024/02/08 00:47:36;;;;;;;15.80;6.65;;;-0.20;99.90;;;4.20;100.00;99571.81;5012110;28;20048;-79
2024/02/08 00:50:05;;;;;;;14.35;5.97;;;-0.10;99.90;;;4.13;100.00;99566.38;5016282;28;20033;-77
2024/02/08 00:52:33;;;;;;;22.42;7.88;;;-0.10;99.90;;;3.99;100.00;99570.06;5011881;28;20481;-77
2024/02/08 00:55:00;;;;;;;18.52;6.70;;;-0.20;99.90;;;3.84;100.00;99568.31;5021664;28;20052;-77
2024/02/08 00:57:29;;;;;;;20.65;7.28;;;-0.30;99.90;;;3.88;100.00;99569.59;4999127;28;20037;-78
2024/02/08 00:59:56;;;;;;;14.60;6.53;;;-0.40;99.90;;;3.81;100.00;99562.47;5025019;28;20073;-78
2024/02/08 01:02:21;;;;;;;20.60;7.25;;;-0.40;99.90;;;3.67;100.00;99564.28;5014988;28;20128;-78
2024/02/08 01:04:48;;;;;;;23.08;7.45;;;-0.40;99.90;;;3.78;100.00;99555.63;5017138;28;20032;-78
2024/02/08 01:07:15;;;;;;;16.67;6.82;;;-0.40;99.90;;;3.91;100.00;99567.53;5013861;28;20038;-77
2024/02/08 01:09:41;;;;;;;16.67;6.68;;;-0.40;99.90;;;3.92;100.00;99559.25;5010957;28;20112;-77
2024/02/08 01:12:07;;;;;;;15.10;6.93;;;-0.30;99.90;;;3.10;100.00;99554.34;5013917;28;20113;-77
2024/02/08 01:14:32;;;;;;;20.73;7.15;;;-0.30;99.90;;;3.02;100.00;99563.41;5012198;28;20048;-78
2024/02/08 01:16:58;;;;;;;20.15;6.95;;;-0.30;99.90;;;3.47;100.00;99554.22;5019355;28;20029;-78
2024/02/08 01:19:25;;;;;;;19.42;7.22;;;-0.30;99.90;;;3.83;100.00;99555.88;4995340;28;20770;-77
2024/02/08 01:21:53;;;;;;;17.10;6.55;;;-0.30;99.90;;;3.94;100.00;99553.63;5018409;28;20042;-77
2024/02/08 01:24:19;;;;;;;15.20;6.72;;;-0.30;99.90;;;3.96;100.00;99557.81;5023006;28;20117;-77
2024/02/08 01:26:46;;;;;;;20.63;7.18;;;-0.30;99.90;;;4.01;100.00;99558.03;5025272;28;20124;-77
2024/02/08 01:29:13;;;;;;;28.45;8.73;;;-0.30;99.90;;;3.59;100.00;99554.50;5029413;28;20025;-77
2024/02/08 01:31:38;;;;;;;17.65;7.00;;;-0.30;99.90;;;3.86;100.00;99552.75;5023372;28;20045;-77
2024/02/08 01:34:07;;;;;;;23.80;7.63;;;-0.40;99.90;;;3.92;100.00;99558.41;5024227;28;20369;-77
2024/02/08 01:36:41;;;;;;;16.05;7.32;;;-0.40;99.90;;;3.93;100.00;99557.34;5024496;28;20042;-77
2024/02/08 01:39:12;;;;;;;20.05;7.65;;;-0.30;99.90;;;3.15;100.00;99553.75;5023504;28;20025;-77
2024/02/08 01:41:43;;;;;;;18.45;7.40;;;-0.30;99.90;;;2.89;100.00;99557.88;5001288;28;20037;-77
2024/02/08 01:44:12;;;;;;;17.00;7.75;;;-0.40;99.90;;;3.42;100.00;99554.78;5014611;28;20037;-76
2024/02/08 01:46:38;;;;;;;22.25;8.23;;;-0.40;99.90;;;3.23;100.00;99540.13;5028297;28;20048;-76
2024/02/08 01:49:12;;;;;;;19.73;8.07;;;-0.40;99.90;;;3.57;100.00;99551.97;5014785;28;20029;-77
2024/02/08 01:51:39;;;;;;;25.33;8.15;;;-0.40;99.90;;;3.40;100.00;99550.59;5030870;28;20103;-77
2024/02/08 01:54:08;;;;;;;18.85;7.15;;;-0.40;99.90;;;3.78;100.00;99547.53;5046332;28;20172;-77
2024/02/08 01:56:41;;;;;;;19.75;6.97;;;-0.30;99.90;;;3.88;100.00;99550.69;5040869;28;20038;-77
2024/02/08 01:59:13;;;;;;;27.60;7.35;;;-0.30;99.90;;;3.92;100.00;99542.19;5014237;28;20034;-77
2024/02/08 02:01:46;;;;;;;14.32;6.93;;;-0.30;99.90;;;3.93;100.00;99533.06;5035831;28;20182;-77
2024/02/08 02:04:15;;;;;;;18.40;7.57;;;-0.30;99.90;;;3.99;100.00;99526.91;4994195;28;20038;-77
2024/02/08 02:06:42;;;;;;;19.80;8.40;;;-0.30;99.90;;;3.98;100.00;99533.31;4978488;28;20518;-77
2024/02/08 02:09:10;;;;;;;18.48;7.63;;;-0.30;99.90;;;4.04;100.00;99524.41;4993960;28;20482;-77
2024/02/08 02:11:47;;;;;;;15.00;7.03;;;-0.20;99.90;;;4.05;100.00;99527.94;4994888;28;20046;-77
2024/02/08 02:14:15;;;;;;;17.48;7.70;;;-0.20;99.90;;;3.84;100.00;99533.25;4995617;28;20030;-77
2024/02/08 02:16:42;;;;;;;21.27;7.93;;;-0.10;99.90;;;3.87;100.00;99532.84;4995142;28;20034;-77
2024/02/08 02:19:08;;;;;;;19.35;7.63;;;-0.10;99.90;;;3.37;100.00;99534.81;4995187;28;20033;-77
2024/02/08 02:21:35;;;;;;;20.92;7.15;;;-0.10;99.90;;;3.45;100.00;99537.41;5002153;28;20399;-77
2024/02/08 02:24:02;;;;;;;21.25;8.40;;;-0.20;99.90;;;3.85;100.00;99536.78;5013191;28;20433;-77
2024/02/08 02:26:29;;;;;;;22.83;8.73;;;-0.20;99.90;;;3.90;100.00;99539.72;4994425;28;20070;-77
2024/02/08 02:28:55;;;;;;;19.77;8.40;;;-0.20;99.90;;;3.28;100.00;99545.78;4999431;28;20451;-77
2024/02/08 02:31:23;;;;;;;20.50;7.85;;;-0.20;99.90;;;3.61;100.00;99547.03;5001498;28;20042;-77
2024/02/08 02:33:50;;;;;;;;;;;-0.30;99.90;;;3.86;100.00;99547.38;4996732;28;20034;-77
2024/02/08 02:36:17;;;;;;;26.00;8.85;;;-0.30;99.90;;;3.84;100.00;99544.03;5007473;28;20003;-77
2024/02/08 02:38:45;;;;;;;21.25;8.50;;;-0.40;99.90;;;3.80;100.00;99545.47;5010800;28;20038;-77
2024/02/08 02:41:10;;;;;;;;;;;-0.40;99.90;;;3.57;100.00;99549.28;5014674;28;20040;-77
2024/02/08 02:43:37;;;;;;;20.25;7.80;;;-0.30;99.90;;;3.30;100.00;99540.16;4995066;28;19922;-77
2024/02/08 02:46:05;;;;;;;26.10;9.10;;;-0.30;99.90;;;3.30;100.00;99546.41;4998994;28;20073;-77
2024/02/08 02:48:34;;;;;;;;;;;-0.20;99.90;;;3.54;100.00;99546.13;5013978;28;20131;-77
2024/02/08 02:51:01;;;;;;;17.95;8.65;;;-0.10;99.90;;;3.69;100.00;99546.03;5009070;28;20447;-77
2024/02/08 02:53:30;;;;;;;20.95;8.10;;;-0.10;99.90;;;3.75;100.00;99545.25;4997235;28;20034;-77
2024/02/08 02:55:58;;;;;;;20.20;8.43;;;-0.10;99.90;;;3.83;100.00;99542.38;4993623;28;20038;-77
2024/02/08 02:58:25;;;;;;;;;;;-0.10;99.90;;;3.98;100.00;99539.53;4993951;28;20048;-77
2024/02/08 03:01:07;;;;;;;19.88;8.10;;;-0.10;99.90;;;4.16;100.00;99533.59;4994255;28;20266;-77
2024/02/08 03:03:40;;;;;;;19.88;8.55;;;-0.10;99.90;;;4.24;100.00;99535.28;4997952;28;20082;-77
2024/02/08 03:06:15;;;;;;;21.00;8.77;;;-0.10;99.90;;;4.34;100.00;99532.19;4990104;28;20072;-77
2024/02/08 03:08:42;;;;;;;19.58;9.23;;;-0.10;99.90;;;4.27;100.00;99518.69;4974523;28;20044;-77
2024/02/08 03:11:13;;;;;;;21.77;8.88;;;0.00;99.90;;;4.34;100.00;99525.94;4957104;28;20073;-77
2024/02/08 03:13:45;;;;;;;22.67;8.98;;;0.00;99.90;;;4.40;100.00;99528.69;4986089;28;20042;-77
2024/02/08 03:16:14;;;;;;;19.08;9.18;;;0.00;99.90;;;4.39;100.00;99537.00;4984557;28;20042;-77
2024/02/08 03:18:48;;;;;;;21.27;8.82;;;0.10;99.90;;;4.38;100.00;99529.94;4988814;28;20038;-77
2024/02/08 03:21:17;;;;;;;16.60;7.88;;;0.10;99.90;;;4.25;100.00;99518.03;4989764;28;20546;-77
2024/02/08 03:23:50;;;;;;;20.95;8.65;;;0.10;99.90;;;4.36;100.00;99521.19;4989753;28;20437;-77
2024/02/08 03:26:17;;;;;;;21.25;9.43;;;0.10;99.90;;;4.34;100.00;99516.00;4990258;28;20049;-77
2024/02/08 03:28:44;;;;;;;18.55;8.57;;;0.10;99.90;;;4.10;100.00;99517.34;4981783;28;20026;-77
2024/02/08 03:31:10;;;;;;;19.67;9.17;;;0.10;99.90;;;3.94;100.00;99523.94;4989627;28;20038;-77
2024/02/08 03:33:37;;;;;;;22.02;8.50;;;0.20;99.90;;;4.11;100.00;99524.41;4988876;28;20046;-76
2024/02/08 03:36:06;;;;;;;20.00;9.10;;;0.20;99.90;;;4.07;100.00;99510.50;4990088;28;20168;-77
2024/02/08 03:38:37;;;;;;;19.50;8.25;;;0.30;99.90;;;4.00;100.00;99517.75;4995058;28;20026;-77
2024/02/08 03:41:03;;;;;;;21.10;8.77;;;0.30;99.90;;;4.26;100.00;99508.09;4981520;28;20046;-77
2024/02/08 03:43:29;;;;;;;19.52;8.63;;;0.30;99.90;;;4.05;100.00;99509.88;5008185;28;20590;-77
2024/02/08 03:45:55;;;;;;;19.58;8.30;;;0.30;99.90;;;3.96;100.00;99511.91;4996085;28;20065;-77
2024/02/08 03:48:24;;;;;;;19.55;9.07;;;0.30;99.90;;;4.23;100.00;99516.56;4995925;28;20050;-77
2024/02/08 03:50:50;;;;;;;21.60;8.25;;;0.30;99.90;;;4.38;100.00;99506.44;4988673;28;20034;-77
2024/02/08 03:53:20;;;;;;;19.52;8.75;;;0.30;99.90;;;4.54;100.00;99516.03;4989102;28;20061;-77
2024/02/08 03:55:47;;;;;;;24.35;8.48;;;0.30;99.90;;;4.58;100.00;99519.16;4989022;28;20045;-77
2024/02/08 03:58:17;;;;;;;23.98;9.13;;;0.30;99.90;;;4.26;100.00;99522.41;4988678;28;20033;-77
2024/02/08 04:00:46;;;;;;;21.02;8.63;;;0.40;99.90;;;4.07;100.00;99507.81;4989159;28;20171;-77
2024/02/08 04:03:33;;;;;;;17.17;8.80;;;0.40;99.90;;;4.17;100.00;99496.63;5005840;28;20054;-77
2024/02/08 04:06:03;;;;;;;20.30;9.23;;;0.40;99.90;;;4.37;100.00;99496.69;5028157;28;20059;-77
2024/02/08 04:55:04;;;;;;;22.42;9.10;;;0.70;99.90;;;4.52;100.00;99493.00;5029779;28;20087;-77
2024/02/08 04:57:29;;;;;;;18.25;8.52;;;0.70;99.90;;;4.12;100.00;99488.31;5030279;28;20034;-77
2024/02/08 04:59:59;;;;;;;22.65;9.77;;;0.70;99.90;;;4.32;100.00;99489.19;5025746;28;20485;-77
2024/02/08 05:02:26;;;;;;;23.83;9.55;;;0.70;99.90;;;4.46;100.00;99489.22;5024806;28;20092;-77
2024/02/08 05:04:52;;;;;;;26.83;10.10;;;0.70;99.90;;;4.67;100.00;99485.50;5030329;28;20417;-77
2024/02/08 05:07:18;;;;;;;20.92;9.68;;;0.70;99.90;;;4.68;100.00;99497.16;5031480;28;20051;-77
2024/02/08 05:09:43;;;;;;;24.45;10.90;;;0.80;99.90;;;4.53;100.00;99490.06;5021512;28;20048;-77
2024/02/08 05:12:10;;;;;;;23.35;10.10;;;0.90;99.90;;;4.40;100.00;99480.06;5018945;28;20041;-77
2024/02/08 05:14:36;;;;;;;22.70;10.02;;;1.00;99.90;;;4.38;100.00;99476.75;5031383;28;20385;-77
2024/02/08 05:17:02;;;;;;;27.77;10.73;;;1.00;99.90;;;4.24;100.00;99475.03;5028114;28;20052;-77
2024/02/08 05:19:28;;;;;;;21.55;9.82;;;1.00;99.90;;;4.25;100.00;99488.34;5029385;28;20125;-77
2024/02/08 05:21:58;;;;;;;26.63;10.35;;;1.00;99.90;;;4.43;100.00;99482.34;5021404;28;20044;-77
2024/02/08 05:24:26;;;;;;;25.63;10.65;;;1.00;99.90;;;4.26;100.00;99481.91;5028874;28;20533;-77
2024/02/08 05:26:53;;;;;;;22.98;9.73;;;1.00;99.90;;;4.34;100.00;99482.75;5019937;28;20148;-77
2024/02/08 05:29:19;;;;;;;26.55;10.38;;;1.10;99.90;;;4.39;100.00;99488.41;5001618;28;20489;-77
2024/02/08 05:31:47;;;;;;;23.88;9.88;;;1.10;99.90;;;4.38;100.00;99489.44;5030169;28;20468;-77
2024/02/08 05:34:15;;;;;;;27.23;9.93;;;1.10;99.90;;;4.36;100.00;99481.53;5030997;28;20400;-77
2024/02/08 05:36:42;;;;;;;21.20;9.40;;;1.10;99.90;;;4.45;100.00;99484.88;5015379;28;20042;-77
2024/02/08 05:39:23;;;;;;;25.35;9.98;;;1.20;99.90;;;4.54;100.00;99480.09;5030682;28;20076;-77
2024/02/08 05:41:56;;;;;;;23.88;10.05;;;1.20;99.90;;;4.75;100.00;99481.78;5020382;28;20542;-77
2024/02/08 05:44:22;;;;;;;23.23;10.73;;;1.20;99.90;;;4.60;100.00;99479.28;5022295;28;20034;-77
2024/02/08 05:46:48;;;;;;;25.20;9.85;;;1.20;99.90;;;4.97;100.00;99479.69;5029770;28;20047;-77
2024/02/08 05:49:15;;;;;;;31.30;10.27;;;1.20;99.90;;;4.93;100.00;99473.03;5029457;28;20483;-77
2024/02/08 05:51:46;;;;;;;23.42;10.50;;;1.20;99.90;;;4.77;100.00;99471.59;5020804;28;20291;-77
2024/02/08 05:54:16;;;;;;;33.05;10.98;;;1.20;99.90;;;5.08;100.00;99472.00;5030846;28;20033;-79
2024/02/08 05:56:47;;;;;;;26.23;10.93;;;1.20;99.90;;;5.31;100.00;99480.50;5024128;28;20442;-76
2024/02/08 05:59:17;;;;;;;29.98;10.32;;;1.20;99.90;;;5.41;100.00;99474.63;5030660;28;20109;-79
2024/02/08 06:01:44;;;;;;;28.80;11.10;;;1.20;99.90;;;5.39;100.00;99473.19;5039580;28;20401;-77
2024/02/08 06:04:24;;;;;;;27.75;11.82;;;1.30;99.90;;;5.19;100.00;99471.34;5045555;28;20397;-76
2024/02/08 06:07:05;;;;;;;27.88;10.52;;;1.30;99.90;;;5.51;100.00;99481.50;5030053;28;20034;-77
2024/02/08 06:12:09;;;;;;;23.13;10.50;;;1.30;99.90;;;5.30;100.00;99488.81;5022751;28;20029;-78
2024/02/08 06:14:39;;;;;;;26.33;10.20;;;1.20;99.90;;;5.59;100.00;99473.16;5007598;28;20037;-78
2024/02/08 06:17:07;;;;;;;23.95;10.32;;;1.30;99.90;;;5.61;100.00;99477.31;5024073;28;20037;-77
2024/02/08 06:19:37;;;;;;;23.52;9.32;;;1.30;99.90;;;5.69;100.00;99459.16;5023389;28;20449;-79
2024/02/08 06:22:19;;;;;;;28.23;10.77;;;1.30;99.90;;;5.61;100.00;99452.09;5028611;28;20469;-78
2024/02/08 06:24:46;;;;;;;24.10;10.80;;;1.20;99.90;;;5.68;100.00;99457.50;5025530;28;20104;-78
2024/02/08 06:27:15;;;;;;;25.27;10.45;;;1.30;99.90;;;5.62;100.00;99459.19;5030158;28;20408;-78
2024/02/08 06:29:49;;;;;;;25.88;11.07;;;1.30;99.90;;;5.44;100.00;99463.41;5029856;28;20112;-78
2024/02/08 06:35:11;;;;;;;25.77;11.60;;;1.20;99.90;;;4.97;100.00;99459.94;5030038;28;20044;-78
2024/02/08 06:37:46;;;;;;;24.08;10.68;;;1.30;99.90;;;4.87;100.00;99463.06;5003356;28;20032;-77
2024/02/08 06:40:24;;;;;;;32.80;11.15;;;1.40;99.90;;;4.86;100.00;99466.81;5022942;28;20025;-77
2024/02/08 07:37:18;;;;;;;27.08;10.85;;;1.70;99.90;;;5.64;100.00;99467.09;5027204;28;20038;-76
2024/02/08 07:40:18;;;;;;;30.52;11.90;;;1.70;99.90;;;5.49;100.00;99472.78;5035057;28;20397;-77
2024/02/08 07:42:41;;;;;;;29.77;11.68;;;1.80;99.90;;;5.55;100.00;99475.44;5031248;28;20344;-78
2024/02/08 07:45:12;;;;;;;27.58;11.30;;;1.80;99.90;;;5.04;100.00;99463.47;5032682;28;20472;-76
2024/02/08 07:47:39;;;;;;;31.98;11.80;;;1.80;99.90;;;5.06;100.00;99458.69;5026440;28;20026;-77
2024/02/08 07:50:09;;;;;;;28.80;11.93;;;1.80;99.90;;;5.00;100.00;99454.13;5016636;28;20029;-76
2024/02/08 07:52:55;;;;;;;29.85;12.13;;;1.90;99.90;;;5.07;100.00;99460.34;5028606;28;20123;-76
2024/02/08 07:55:46;;;;;;;27.42;11.82;;;1.90;99.90;;;5.06;100.00;99447.88;5027284;28;20049;-78
2024/02/08 07:58:14;;;;;;;35.75;12.65;;;1.90;99.90;;;5.24;100.00;99441.81;5019072;28;20034;-78
2024/02/08 08:03:08;;;;;;;31.02;13.50;;;2.00;99.90;;;5.77;100.00;99439.97;5027101;28;20052;-76
2024/02/08 08:05:43;;;;;;;30.10;13.20;;;2.10;99.90;;;6.09;100.00;99437.34;5027233;28;20038;-77
2024/02/08 08:08:32;;;;;;;28.95;12.25;;;2.10;99.90;;;6.16;100.00;99449.00;5025827;28;20508;-76
2024/02/08 08:11:05;;;;;;;29.98;12.70;;;2.20;99.90;;;6.27;100.00;99450.19;5022065;28;20048;-75
2024/02/08 08:19:07;;;;;;;31.25;12.25;;;2.40;99.90;;;6.26;100.00;99434.13;5010353;28;20409;-77
2024/02/08 08:24:27;;;;;;;25.02;11.07;;;2.50;99.90;;;6.10;100.00;99436.31;5016292;28;20045;-76
2024/02/08 08:27:06;;;;;;;29.27;12.02;;;2.50;99.90;;;6.25;100.00;99446.00;5025756;28;20495;-77
2024/02/08 08:29:42;;;;;;;27.92;11.45;;;2.60;99.90;;;6.20;100.00;99443.94;5018956;28;20033;-78
2024/02/08 08:35:37;;;;;;;28.83;11.60;;;2.70;99.90;;;6.32;100.00;99463.91;5029511;28;20489;-78
2024/02/08 08:40:37;;;;;;;27.75;11.80;;;2.90;99.90;;;6.46;100.00;99456.50;5016458;28;20051;-78
2024/02/08 08:43:10;;;;;;;29.30;11.38;;;2.90;99.90;;;6.30;100.00;99452.44;5026620;28;20096;-77
2024/02/08 08:45:40;;;;;;;26.38;11.70;;;3.00;99.90;;;6.62;100.00;99446.16;5021884;28;20125;-79
2024/02/08 08:48:08;;;;;;;29.63;12.32;;;3.10;99.90;;;6.96;100.00;99448.59;5027856;28;20044;-78
2024/02/08 08:50:33;;;;;;;26.10;11.38;;;3.20;99.90;;;6.87;100.00;99445.34;5029523;28;20103;-78
2024/02/08 08:53:16;;;;;;;28.58;11.55;;;3.30;99.90;;;6.82;100.00;99446.03;5028286;28;20033;-78
2024/02/08 08:55:48;;;;;;;32.30;11.65;;;3.40;99.90;;;6.24;100.00;99433.53;5029357;28;20103;-79
2024/02/08 08:58:14;;;;;;;26.85;11.20;;;3.40;99.90;;;6.23;100.00;99438.09;5025541;28;20393;-77
2024/02/08 09:00:46;;;;;;;27.20;11.75;;;3.30;99.90;;;6.48;100.00;99431.88;5015065;28;20036;-77
2024/02/08 09:03:26;;;;;;;23.95;10.73;;;3.40;99.90;;;6.54;100.00;99417.47;5026305;28;20045;-79
2024/02/08 09:06:02;;;;;;;26.02;11.20;;;3.50;99.90;;;6.51;100.00;99398.97;4996189;28;20061;-79
2024/02/08 09:08:42;;;;;;;25.48;10.95;;;3.50;99.90;;;6.35;100.00;99411.13;5027202;28;20083;-79
2024/02/08 09:11:12;;;;;;;25.20;10.90;;;3.60;99.90;;;6.92;100.00;99413.00;5012358;28;20044;-78
2024/02/08 09:13:42;;;;;;;23.30;11.45;;;3.70;99.90;;;7.15;100.00;99408.78;5020380;28;20072;-77
2024/02/08 09:19:04;;;;;;;27.02;10.68;;;3.80;99.90;;;6.76;100.00;99420.63;5030682;28;20645;-77
2024/02/08 09:21:39;;;;;;;26.55;11.10;;;3.90;99.90;;;6.76;100.00;99417.91;5023984;28;20040;-77
2024/02/08 09:24:17;;;;;;;23.15;10.60;;;3.80;99.90;;;6.54;100.00;99408.50;5029701;28;20041;-78
2024/02/08 09:27:00;;;;;;;25.77;10.20;;;3.80;99.90;;;7.07;100.00;99417.22;5029843;28;20124;-77
2024/02/08 09:29:26;;;;;;;27.88;10.88;;;3.90;99.90;;;7.29;100.00;99418.44;5027008;28;20029;-77
2024/02/08 09:31:58;;;;;;;19.75;9.95;;;4.00;99.90;;;6.99;100.00;99413.75;5029658;28;20037;-79
2024/02/08 09:34:37;;;;;;;24.45;10.50;;;4.20;99.90;;;6.72;100.00;99414.00;5031067;28;20386;-78
2024/02/08 09:37:10;;;;;;;25.63;10.88;;;4.10;99.90;;;6.72;100.00;99400.44;5031143;28;20090;-76
2024/02/08 09:42:20;;;;;;;21.67;10.50;;;4.10;99.90;;;6.56;100.00;99411.81;5028354;28;20041;-77
2024/02/08 09:44:49;;;;;;;29.10;10.27;;;4.10;99.90;;;6.88;100.00;99412.59;5030696;28;20044;-78
2024/02/08 09:47:25;;;;;;;30.75;10.45;;;4.10;99.90;;;7.13;100.00;99413.59;5020506;28;20040;-77
2024/02/08 09:50:00;;;;;;;26.50;10.27;;;4.20;99.90;;;6.78;100.00;99401.44;5020855;28;20041;-76
2024/02/08 09:52:30;;;;;;;28.77;10.45;;;4.20;99.90;;;6.90;100.00;99404.25;5017233;28;20041;-75
2024/02/08 09:55:18;;;;;;;22.60;10.02;;;4.20;99.90;;;7.26;100.00;99404.50;5014181;28;20061;-75
2024/02/08 09:57:48;;;;;;;23.45;9.50;;;4.30;99.90;;;6.88;100.00;99390.91;5027040;28;20123;-77
2024/02/08 10:03:03;;;;;;;26.58;8.90;;;4.20;99.90;;;6.91;100.00;99376.91;5024729;28;20096;-77
2024/02/08 10:05:52;;;;;;;21.35;8.07;;;4.30;99.90;;;6.90;100.00;99366.28;5016942;28;20116;-78
2024/02/08 10:08:32;;;;;;;21.77;8.77;;;4.20;99.90;;;7.27;100.00;99365.47;5024298;28;20060;-78
2024/02/08 10:14:01;;;;;;;20.25;9.52;;;4.60;99.90;;;7.38;100.00;99361.16;5027428;28;20037;-78
2024/02/08 10:16:29;;;;;;;22.95;9.10;;;4.80;99.90;;;7.65;100.00;99372.53;5020642;28;20624;-81
2024/02/08 10:19:02;;;;;;;;;;;4.90;99.90;;;7.26;100.00;99369.22;5005839;28;20073;-79
2024/02/08 10:21:29;;;;;;;16.67;7.22;;;4.90;99.90;;;7.57;100.00;99373.66;5021630;28;20387;-78
2024/02/08 10:24:11;;;;;;;15.07;7.20;;;5.00;99.90;;;7.87;100.00;99363.91;5025241;28;20072;-79
2024/02/08 10:26:45;;;;;;;19.70;7.38;;;5.10;99.90;;;7.92;100.00;99353.16;5018063;28;20155;-78
2024/02/08 10:29:14;;;;;;;19.85;7.68;;;5.40;99.90;;;8.25;100.00;99367.31;5017356;28;20036;-79
2024/02/08 10:31:40;;;;;;;23.20;7.90;;;5.60;99.90;;;8.82;100.00;99355.91;5027417;28;20044;-79
2024/02/08 10:34:08;;;;;;;21.10;7.45;;;6.00;99.90;;;9.07;100.00;99352.13;5017700;28;20481;-79
2024/02/08 10:36:44;;;;;;;20.65;7.45;;;6.50;99.90;;;10.36;92.97;99335.50;5011288;28;20045;-77
2024/02/08 10:39:26;;;;;;;22.30;8.38;;;7.30;99.90;;;9.83;96.69;99350.38;5013809;28;20048;-75
2024/02/08 10:41:58;;;;;;;18.70;7.70;;;7.80;99.90;;;10.95;89.94;99330.69;5024377;28;20078;-76
2024/02/08 10:44:34;;;;;;;19.92;7.53;;;8.50;99.90;;;10.81;88.28;99322.03;5006267;28;20040;-77
2024/02/08 10:47:09;;;;;;;20.13;7.50;;;8.90;99.90;;;10.86;88.61;99318.53;5009586;28;20041;-78
2024/02/08 10:49:42;;;;;;;21.75;7.18;;;9.40;99.90;;;10.96;85.85;99302.31;5018875;28;20545;-77
2024/02/08 10:52:12;;;;;;;18.00;6.47;;;9.30;99.90;;;10.40;89.96;99297.72;5019248;28;20037;-77
2024/02/08 10:54:51;;;;;;;16.25;6.00;;;9.00;99.90;;;10.72;84.31;99282.59;5029772;28;20507;-77
2024/02/08 10:57:39;;;;;;;13.02;5.53;;;8.80;99.90;;;9.85;86.18;99278.25;5028104;28;20107;-79
2024/02/08 11:03:00;;;;;;;16.63;6.03;;;7.70;99.90;;;9.34;87.13;99284.41;5013718;28;20081;-76
2024/02/08 11:07:53;;;;;;;15.55;5.93;;;7.20;99.90;;;9.10;97.79;99285.53;5012576;28;20038;-76
2024/02/08 11:10:23;;;;;;;15.85;5.43;;;7.10;99.90;;;8.82;95.99;99282.50;5020101;28;20034;-77
2024/02/08 11:12:56;;;;;;;18.80;6.43;;;7.00;99.90;;;8.87;96.41;99279.06;5016968;28;20030;-76
2024/02/08 11:15:30;;;;;;;15.55;5.72;;;6.90;99.90;;;8.42;100.00;99289.47;5019570;28;20036;-77
2024/02/08 11:18:02;;;;;;;13.98;6.07;;;6.50;99.90;;;8.30;100.00;99294.06;5027957;28;20067;-78
2024/02/08 11:20:42;;;;;;;20.33;6.88;;;6.40;99.90;;;8.49;100.00;99279.34;5013468;28;20095;-77
2024/02/08 11:23:23;;;;;;;14.65;5.88;;;6.30;99.90;;;8.21;100.00;99286.25;5023472;28;20069;-78
2024/02/08 11:25:56;;;;;;;14.30;5.50;;;6.20;99.90;;;8.50;100.00;99263.84;5016807;28;20026;-78
2024/02/08 11:28:28;;;;;;;19.52;5.75;;;6.20;99.90;;;8.53;100.00;99279.69;5044703;28;20485;-77
2024/02/08 11:30:54;;;;;;;16.75;6.45;;;6.20;99.90;;;8.87;100.00;99266.28;5018123;28;20699;-77
2024/02/08 11:33:32;;;;;;;18.73;6.55;;;6.20;99.90;;;8.38;100.00;99268.44;5024693;28;20032;-78
2024/02/08 11:36:11;;;;;;;17.17;5.60;;;6.10;99.90;;;7.87;100.00;99263.44;5023471;28;20041;-77
2024/02/08 11:38:46;;;;;;;12.55;5.07;;;6.00;99.90;;;8.15;100.00;99265.47;5024039;28;20064;-77
2024/02/08 11:41:18;;;;;;;18.67;5.13;;;5.90;99.90;;;8.23;100.00;99253.41;5011849;28;20343;-78
2024/02/08 11:43:47;;;;;;;16.67;6.13;;;6.00;99.90;;;8.35;100.00;99239.84;5023357;28;20849;-78
2024/02/08 11:46:21;;;;;;;17.55;4.90;;;6.00;99.90;;;8.13;100.00;99240.41;5024670;28;20053;-78
2024/02/08 11:48:49;;;;;;;15.00;5.20;;;5.90;99.90;;;8.26;100.00;99238.56;5024908;28;20037;-78
2024/02/08 11:51:17;;;;;;;18.30;5.25;;;5.80;99.90;;;8.09;100.00;99233.81;5030256;28;20049;-79
2024/02/08 11:53:45;;;;;;;15.23;5.57;;;5.80;99.90;;;7.90;100.00;99228.47;5022395;28;20106;-78
2024/02/08 11:56:15;;;;;;;15.25;5.10;;;5.70;99.90;;;8.01;100.00;99234.97;5035321;28;20045;-77
2024/02/08 11:58:46;;;;;;;13.00;5.30;;;5.60;99.90;;;8.19;100.00;99244.09;5023643;28;20037;-77
2024/02/08 12:01:14;;;;;;;12.18;4.95;;;5.70;99.90;;;8.14;100.00;99224.97;5022429;28;20497;-77
2024/02/08 12:03:44;;;;;;;16.23;5.07;;;5.70;99.90;;;8.15;100.00;99218.47;5024400;28;20050;-78
2024/02/08 12:06:21;;;;;;;20.58;5.75;;;5.70;99.90;;;8.08;100.00;99221.28;5023630;28;21464;-76
2024/02/08 12:08:59;;;;;;;17.42;5.75;;;5.70;99.90;;;7.96;100.00;99215.03;5021979;28;20030;-76
2024/02/08 12:11:32;;;;;;;21.90;5.17;;;5.60;99.90;;;8.05;100.00;99210.91;5028159;28;20315;-77
2024/02/08 12:14:07;;;;;;;12.23;4.55;;;5.60;99.90;;;7.89;100.00;99207.00;5026536;28;20037;-77
2024/02/08 12:16:38;;;;;;;12.93;4.70;;;5.60;99.90;;;7.68;100.00;99198.34;5027451;28;20081;-76
2024/02/08 12:19:13;;;;;;;17.58;4.82;;;5.50;99.90;;;7.63;100.00;99195.50;5022264;28;20608;-76
2024/02/08 12:21:41;;;;;;;15.40;4.65;;;5.40;99.90;;;7.65;100.00;99195.25;5027217;28;20030;-76
2024/02/08 12:24:15;;;;;;;13.73;4.10;;;5.40;99.90;;;7.63;100.00;99199.03;5013943;28;20037;-76
2024/02/08 12:26:43;;;;;;;12.27;4.15;;;5.40;99.90;;;7.52;100.00;99190.84;5030200;28;20505;-75
2024/02/08 12:29:16;;;;;;;16.73;4.20;;;5.30;99.90;;;7.45;100.00;99193.69;5026467;28;20493;-75
2024/02/08 12:31:47;;;;;;;13.13;4.20;;;5.30;99.90;;;7.58;100.00;99195.38;5023279;28;20059;-75
2024/02/08 12:34:16;;;;;;;11.40;4.00;;;5.20;99.90;;;7.64;100.00;99189.00;5026717;28;20033;-76
2024/02/08 12:36:46;;;;;;;14.93;4.00;;;5.30;99.90;;;7.81;100.00;99188.31;5028814;28;20049;-76
2024/02/08 12:39:18;;;;;;;13.75;4.35;;;5.40;99.90;;;7.80;100.00;99178.50;5019833;28;20037;-77
2024/02/08 12:41:46;;;;;;;15.60;3.17;;;5.40;99.90;;;7.83;100.00;99184.31;5022061;28;20042;-76
2024/02/08 12:44:20;;;;;;;13.68;3.80;;;5.50;99.90;;;7.69;100.00;99188.28;5002298;28;20026;-76
2024/02/08 12:46:52;;;;;;;15.23;3.85;;;5.50;99.90;;;7.60;100.00;99185.09;5025240;28;20045;-76
2024/02/08 12:49:18;;;;;;;14.95;4.03;;;5.40;99.90;;;7.66;100.00;99178.75;5024152;28;20130;-76
2024/02/08 12:51:44;;;;;;;15.05;4.10;;;5.40;99.90;;;7.58;100.00;99179.09;5019562;28;20045;-75